West Hurley, New York
Current Conditions -  °F | °C
As of 12:53 AM on Wednesday 26 Nov 2014 (Local Time) from KPOU Reporting Station
Clear Clear  
Wind Chill: 31°   Ceiling: Unl
Heat Index: 38°   Visibility: 10mi
Dew Point: 31°   Wind: 10mph
Humidity: 76%   Direction: 10°N
Pressure: 30.15"   Gusts: NA
Location:  42.01°N, 74.11°W
Report Text: KPOU 260553Z AUTO 01009KT 10SM CLR 03/M01 A3015 RMK AO2 SLP208 T00331006 10072 20028 51012 TSNO
Loading
Personal Weather Stations






























Interactive Weather Map New forecast layout! Learn more

10-Day Weather Forecast

Advertisements
Track Severe Weather on mobile